sensor_id;sensor_type;location;lat;lon;timestamp;P1;durP1;ratioP1;P2;durP2;ratioP2
50429;SDS011;36359;41.556;-8.418;2023-10-31T00:00:22;16.33;;;6.90;;
50429;SDS011;36359;41.556;-8.418;2023-10-31T00:05:20;16.15;;;5.65;;
50429;SDS011;36359;41.556;-8.418;2023-10-31T00:07:46;15.40;;;5.80;;
50429;SDS011;36359;41.556;-8.418;2023-10-31T00:10:12;15.95;;;6.05;;
50429;SDS011;36359;41.556;-8.418;2023-10-31T00:12:38;15.20;;;5.68;;
50429;SDS011;36359;41.556;-8.418;2023-10-31T00:15:05;14.55;;;6.20;;
50429;SDS011;36359;41.556;-8.418;2023-10-31T00:17:31;15.15;;;5.65;;
50429;SDS011;36359;41.556;-8.418;2023-10-31T00:19:56;15.23;;;6.13;;
50429;SDS011;36359;41.556;-8.418;2023-10-31T00:22:22;13.80;;;4.78;;
50429;SDS011;36359;41.556;-8.418;2023-10-31T00:24:48;15.13;;;5.57;;
50429;SDS011;36359;41.556;-8.418;2023-10-31T00:27:13;12.45;;;5.50;;
50429;SDS011;36359;41.556;-8.418;2023-10-31T00:29:40;18.55;;;5.70;;
50429;SDS011;36359;41.556;-8.418;2023-10-31T00:32:06;24.30;;;9.57;;
50429;SDS011;36359;41.556;-8.418;2023-10-31T00:34:32;29.00;;;12.55;;
50429;SDS011;36359;41.556;-8.418;2023-10-31T00:36:58;21.25;;;7.90;;
50429;SDS011;36359;41.556;-8.418;2023-10-31T00:39:24;18.50;;;7.43;;
50429;SDS011;36359;41.556;-8.418;2023-10-31T00:41:50;18.25;;;7.95;;
50429;SDS011;36359;41.556;-8.418;2023-10-31T00:44:15;17.05;;;6.82;;
50429;SDS011;36359;41.556;-8.418;2023-10-31T00:46:41;16.63;;;7.45;;
50429;SDS011;36359;41.556;-8.418;2023-10-31T00:49:07;18.73;;;7.53;;
50429;SDS011;36359;41.556;-8.418;2023-10-31T00:51:33;15.23;;;7.20;;
50429;SDS011;36359;41.556;-8.418;2023-10-31T00:53:59;14.80;;;7.10;;
50429;SDS011;36359;41.556;-8.418;2023-10-31T00:56:25;14.85;;;7.22;;
50429;SDS011;36359;41.556;-8.418;2023-10-31T00:58:50;21.10;;;7.70;;
50429;SDS011;36359;41.556;-8.418;2023-10-31T01:01:16;17.30;;;7.68;;
50429;SDS011;36359;41.556;-8.418;2023-10-31T01:03:42;14.05;;;6.43;;
50429;SDS011;36359;41.556;-8.418;2023-10-31T01:06:08;11.80;;;5.68;;
50429;SDS011;36359;41.556;-8.418;2023-10-31T01:08:34;13.43;;;6.07;;
50429;SDS011;36359;41.556;-8.418;2023-10-31T01:11:00;12.18;;;5.95;;
50429;SDS011;36359;41.556;-8.418;2023-10-31T01:13:25;14.65;;;6.35;;
50429;SDS011;36359;41.556;-8.418;2023-10-31T01:15:51;13.15;;;6.70;;
50429;SDS011;36359;41.556;-8.418;2023-10-31T01:18:17;38.63;;;9.65;;
50429;SDS011;36359;41.556;-8.418;2023-10-31T01:20:43;30.75;;;9.75;;
50429;SDS011;36359;41.556;-8.418;2023-10-31T01:23:08;13.60;;;8.05;;
50429;SDS011;36359;41.556;-8.418;2023-10-31T01:25:34;12.30;;;7.93;;
50429;SDS011;36359;41.556;-8.418;2023-10-31T01:28:00;13.45;;;7.00;;
50429;SDS011;36359;41.556;-8.418;2023-10-31T01:30:25;11.38;;;6.18;;
50429;SDS011;36359;41.556;-8.418;2023-10-31T01:32:51;15.40;;;6.93;;
50429;SDS011;36359;41.556;-8.418;2023-10-31T01:35:17;15.43;;;7.15;;
50429;SDS011;36359;41.556;-8.418;2023-10-31T01:37:42;12.05;;;6.18;;
50429;SDS011;36359;41.556;-8.418;2023-10-31T01:40:11;14.38;;;6.78;;
50429;SDS011;36359;41.556;-8.418;2023-10-31T01:42:38;12.30;;;6.60;;
50429;SDS011;36359;41.556;-8.418;2023-10-31T01:45:03;17.30;;;6.53;;
50429;SDS011;36359;41.556;-8.418;2023-10-31T01:47:29;11.80;;;5.18;;
50429;SDS011;36359;41.556;-8.418;2023-10-31T01:49:56;11.30;;;5.05;;
50429;SDS011;36359;41.556;-8.418;2023-10-31T01:52:23;16.42;;;5.40;;
50429;SDS011;36359;41.556;-8.418;2023-10-31T01:54:49;13.65;;;5.57;;
50429;SDS011;36359;41.556;-8.418;2023-10-31T01:57:15;13.57;;;5.20;;
50429;SDS011;36359;41.556;-8.418;2023-10-31T01:59:41;17.13;;;5.57;;
50429;SDS011;36359;41.556;-8.418;2023-10-31T02:02:07;17.88;;;5.95;;
50429;SDS011;36359;41.556;-8.418;2023-10-31T02:04:33;13.82;;;5.95;;
50429;SDS011;36359;41.556;-8.418;2023-10-31T02:06:59;10.98;;;4.75;;
50429;SDS011;36359;41.556;-8.418;2023-10-31T02:09:25;15.95;;;6.32;;
50429;SDS011;36359;41.556;-8.418;2023-10-31T02:11:52;11.90;;;5.05;;
50429;SDS011;36359;41.556;-8.418;2023-10-31T02:14:18;13.10;;;5.72;;
50429;SDS011;36359;41.556;-8.418;2023-10-31T02:16:44;8.10;;;3.90;;
50429;SDS011;36359;41.556;-8.418;2023-10-31T02:19:10;10.73;;;4.35;;
50429;SDS011;36359;41.556;-8.418;2023-10-31T02:21:40;15.23;;;5.90;;
50429;SDS011;36359;41.556;-8.418;2023-10-31T02:24:06;11.77;;;4.28;;
50429;SDS011;36359;41.556;-8.418;2023-10-31T02:26:33;14.77;;;5.43;;
50429;SDS011;36359;41.556;-8.418;2023-10-31T02:29:00;12.07;;;4.28;;
50429;SDS011;36359;41.556;-8.418;2023-10-31T02:31:27;9.98;;;3.70;;
50429;SDS011;36359;41.556;-8.418;2023-10-31T02:33:53;15.05;;;4.18;;
50429;SDS011;36359;41.556;-8.418;2023-10-31T02:36:19;11.77;;;4.25;;
50429;SDS011;36359;41.556;-8.418;2023-10-31T02:38:45;12.90;;;4.57;;
50429;SDS011;36359;41.556;-8.418;2023-10-31T02:41:12;12.50;;;4.45;;
50429;SDS011;36359;41.556;-8.418;2023-10-31T02:43:38;14.32;;;5.00;;
50429;SDS011;36359;41.556;-8.418;2023-10-31T02:46:05;16.25;;;5.22;;
50429;SDS011;36359;41.556;-8.418;2023-10-31T02:48:31;14.70;;;4.05;;
50429;SDS011;36359;41.556;-8.418;2023-10-31T02:51:03;8.75;;;4.00;;
50429;SDS011;36359;41.556;-8.418;2023-10-31T02:53:30;12.57;;;4.90;;
50429;SDS011;36359;41.556;-8.418;2023-10-31T02:55:55;15.25;;;4.40;;
50429;SDS011;36359;41.556;-8.418;2023-10-31T02:58:21;15.18;;;3.78;;
50429;SDS011;36359;41.556;-8.418;2023-10-31T03:00:47;11.65;;;4.20;;
50429;SDS011;36359;41.556;-8.418;2023-10-31T03:03:13;11.50;;;3.33;;
50429;SDS011;36359;41.556;-8.418;2023-10-31T03:05:38;14.45;;;3.63;;
50429;SDS011;36359;41.556;-8.418;2023-10-31T03:08:04;13.27;;;3.33;;
50429;SDS011;36359;41.556;-8.418;2023-10-31T03:10:30;9.32;;;3.55;;
50429;SDS011;36359;41.556;-8.418;2023-10-31T03:12:56;10.43;;;3.13;;
50429;SDS011;36359;41.556;-8.418;2023-10-31T03:15:21;13.18;;;3.55;;
50429;SDS011;36359;41.556;-8.418;2023-10-31T03:17:47;13.02;;;4.20;;
50429;SDS011;36359;41.556;-8.418;2023-10-31T03:20:13;12.63;;;3.47;;
50429;SDS011;36359;41.556;-8.418;2023-10-31T03:22:38;11.88;;;3.97;;
50429;SDS011;36359;41.556;-8.418;2023-10-31T03:25:04;16.05;;;4.43;;
50429;SDS011;36359;41.556;-8.418;2023-10-31T03:27:31;10.25;;;3.85;;
50429;SDS011;36359;41.556;-8.418;2023-10-31T03:29:57;12.88;;;4.15;;
50429;SDS011;36359;41.556;-8.418;2023-10-31T03:32:23;13.90;;;3.75;;
50429;SDS011;36359;41.556;-8.418;2023-10-31T03:34:48;15.48;;;3.85;;
50429;SDS011;36359;41.556;-8.418;2023-10-31T03:37:14;13.25;;;3.67;;
50429;SDS011;36359;41.556;-8.418;2023-10-31T03:39:40;11.13;;;4.00;;
50429;SDS011;36359;41.556;-8.418;2023-10-31T03:42:06;13.00;;;4.05;;
50429;SDS011;36359;41.556;-8.418;2023-10-31T03:44:31;9.23;;;3.45;;
50429;SDS011;36359;41.556;-8.418;2023-10-31T03:46:57;9.40;;;3.38;;
50429;SDS011;36359;41.556;-8.418;2023-10-31T03:49:23;12.20;;;3.92;;
50429;SDS011;36359;41.556;-8.418;2023-10-31T03:51:49;10.38;;;3.53;;
50429;SDS011;36359;41.556;-8.418;2023-10-31T03:54:15;10.20;;;3.25;;
50429;SDS011;36359;41.556;-8.418;2023-10-31T03:56:41;12.43;;;3.50;;
50429;SDS011;36359;41.556;-8.418;2023-10-31T03:59:08;10.98;;;3.67;;
50429;SDS011;36359;41.556;-8.418;2023-10-31T04:01:33;12.60;;;3.50;;
50429;SDS011;36359;41.556;-8.418;2023-10-31T04:04:00;10.82;;;3.70;;
50429;SDS011;36359;41.556;-8.418;2023-10-31T04:06:26;10.30;;;3.28;;
50429;SDS011;36359;41.556;-8.418;2023-10-31T04:08:52;9.00;;;2.90;;
50429;SDS011;36359;41.556;-8.418;2023-10-31T04:11:17;12.05;;;3.78;;
50429;SDS011;36359;41.556;-8.418;2023-10-31T04:13:43;7.68;;;2.67;;
50429;SDS011;36359;41.556;-8.418;2023-10-31T04:16:09;11.27;;;3.05;;
50429;SDS011;36359;41.556;-8.418;2023-10-31T04:18:35;10.20;;;3.35;;
50429;SDS011;36359;41.556;-8.418;2023-10-31T04:21:02;12.32;;;3.53;;
50429;SDS011;36359;41.556;-8.418;2023-10-31T04:23:28;8.38;;;3.70;;
50429;SDS011;36359;41.556;-8.418;2023-10-31T04:25:54;9.23;;;3.17;;
50429;SDS011;36359;41.556;-8.418;2023-10-31T04:28:20;8.55;;;2.80;;
50429;SDS011;36359;41.556;-8.418;2023-10-31T04:30:45;9.32;;;3.50;;
50429;SDS011;36359;41.556;-8.418;2023-10-31T04:33:11;13.45;;;3.25;;
50429;SDS011;36359;41.556;-8.418;2023-10-31T04:35:37;12.88;;;3.33;;
50429;SDS011;36359;41.556;-8.418;2023-10-31T04:38:03;11.13;;;3.40;;
50429;SDS011;36359;41.556;-8.418;2023-10-31T04:40:28;11.90;;;3.65;;
50429;SDS011;36359;41.556;-8.418;2023-10-31T04:42:54;10.32;;;3.22;;
50429;SDS011;36359;41.556;-8.418;2023-10-31T04:45:20;10.00;;;2.97;;
50429;SDS011;36359;41.556;-8.418;2023-10-31T04:47:46;12.48;;;3.40;;
50429;SDS011;36359;41.556;-8.418;2023-10-31T04:50:12;6.97;;;2.67;;
50429;SDS011;36359;41.556;-8.418;2023-10-31T04:52:37;9.10;;;3.00;;
50429;SDS011;36359;41.556;-8.418;2023-10-31T04:55:03;8.82;;;3.20;;
50429;SDS011;36359;41.556;-8.418;2023-10-31T04:57:29;9.15;;;2.75;;
50429;SDS011;36359;41.556;-8.418;2023-10-31T04:59:55;10.85;;;3.50;;
50429;SDS011;36359;41.556;-8.418;2023-10-31T05:02:22;13.70;;;3.60;;
50429;SDS011;36359;41.556;-8.418;2023-10-31T05:04:49;11.25;;;3.63;;
50429;SDS011;36359;41.556;-8.418;2023-10-31T05:07:19;13.18;;;4.93;;
50429;SDS011;36359;41.556;-8.418;2023-10-31T05:09:45;13.05;;;4.18;;
50429;SDS011;36359;41.556;-8.418;2023-10-31T05:12:11;9.02;;;3.22;;
50429;SDS011;36359;41.556;-8.418;2023-10-31T05:14:36;9.75;;;3.60;;
50429;SDS011;36359;41.556;-8.418;2023-10-31T05:17:02;14.50;;;3.42;;
50429;SDS011;36359;41.556;-8.418;2023-10-31T05:19:28;11.68;;;3.33;;
50429;SDS011;36359;41.556;-8.418;2023-10-31T05:21:55;12.00;;;3.53;;
50429;SDS011;36359;41.556;-8.418;2023-10-31T05:24:20;10.80;;;3.15;;
50429;SDS011;36359;41.556;-8.418;2023-10-31T05:26:46;10.68;;;3.38;;
50429;SDS011;36359;41.556;-8.418;2023-10-31T05:29:12;8.98;;;2.80;;
50429;SDS011;36359;41.556;-8.418;2023-10-31T05:31:38;8.13;;;2.95;;
50429;SDS011;36359;41.556;-8.418;2023-10-31T05:34:04;11.32;;;2.63;;
50429;SDS011;36359;41.556;-8.418;2023-10-31T05:36:30;10.18;;;3.08;;
50429;SDS011;36359;41.556;-8.418;2023-10-31T05:38:55;8.52;;;2.88;;
50429;SDS011;36359;41.556;-8.418;2023-10-31T05:41:21;8.73;;;2.72;;
50429;SDS011;36359;41.556;-8.418;2023-10-31T05:43:47;12.38;;;2.80;;
50429;SDS011;36359;41.556;-8.418;2023-10-31T05:46:13;11.90;;;3.25;;
50429;SDS011;36359;41.556;-8.418;2023-10-31T05:48:40;7.70;;;2.55;;
50429;SDS011;36359;41.556;-8.418;2023-10-31T05:51:11;9.50;;;3.53;;
50429;SDS011;36359;41.556;-8.418;2023-10-31T05:53:40;9.63;;;2.53;;
50429;SDS011;36359;41.556;-8.418;2023-10-31T05:56:07;10.77;;;2.80;;
50429;SDS011;36359;41.556;-8.418;2023-10-31T05:58:34;9.57;;;3.22;;
50429;SDS011;36359;41.556;-8.418;2023-10-31T06:01:00;10.13;;;2.72;;
50429;SDS011;36359;41.556;-8.418;2023-10-31T06:03:25;7.53;;;2.67;;
50429;SDS011;36359;41.556;-8.418;2023-10-31T06:05:51;6.43;;;2.40;;
50429;SDS011;36359;41.556;-8.418;2023-10-31T06:08:17;10.63;;;3.03;;
50429;SDS011;36359;41.556;-8.418;2023-10-31T06:10:42;10.80;;;3.10;;
50429;SDS011;36359;41.556;-8.418;2023-10-31T06:13:08;10.88;;;3.33;;
50429;SDS011;36359;41.556;-8.418;2023-10-31T06:15:34;8.38;;;3.85;;
50429;SDS011;36359;41.556;-8.418;2023-10-31T06:18:00;13.48;;;3.80;;
50429;SDS011;36359;41.556;-8.418;2023-10-31T06:20:26;9.43;;;3.58;;
50429;SDS011;36359;41.556;-8.418;2023-10-31T06:22:52;12.02;;;3.53;;
50429;SDS011;36359;41.556;-8.418;2023-10-31T06:25:17;11.25;;;3.35;;
50429;SDS011;36359;41.556;-8.418;2023-10-31T06:27:43;9.00;;;3.20;;
50429;SDS011;36359;41.556;-8.418;2023-10-31T06:30:09;11.88;;;3.08;;
50429;SDS011;36359;41.556;-8.418;2023-10-31T06:32:35;13.35;;;3.55;;
50429;SDS011;36359;41.556;-8.418;2023-10-31T06:35:02;7.82;;;2.70;;
50429;SDS011;36359;41.556;-8.418;2023-10-31T06:37:31;13.88;;;3.50;;
50429;SDS011;36359;41.556;-8.418;2023-10-31T06:39:56;13.05;;;3.10;;
50429;SDS011;36359;41.556;-8.418;2023-10-31T06:42:22;16.92;;;3.38;;
50429;SDS011;36359;41.556;-8.418;2023-10-31T06:44:48;10.60;;;3.38;;
50429;SDS011;36359;41.556;-8.418;2023-10-31T06:47:13;12.13;;;3.30;;
50429;SDS011;36359;41.556;-8.418;2023-10-31T06:49:39;11.98;;;3.30;;
50429;SDS011;36359;41.556;-8.418;2023-10-31T06:52:05;16.98;;;3.22;;
50429;SDS011;36359;41.556;-8.418;2023-10-31T06:54:31;11.25;;;2.63;;
50429;SDS011;36359;41.556;-8.418;2023-10-31T06:56:57;10.63;;;3.65;;
50429;SDS011;36359;41.556;-8.418;2023-10-31T06:59:22;10.95;;;3.00;;
50429;SDS011;36359;41.556;-8.418;2023-10-31T07:01:48;7.13;;;2.60;;
50429;SDS011;36359;41.556;-8.418;2023-10-31T07:04:14;13.13;;;2.92;;
50429;SDS011;36359;41.556;-8.418;2023-10-31T07:06:41;10.35;;;2.63;;
50429;SDS011;36359;41.556;-8.418;2023-10-31T07:09:07;9.43;;;2.88;;
50429;SDS011;36359;41.556;-8.418;2023-10-31T07:11:33;13.90;;;2.78;;
50429;SDS011;36359;41.556;-8.418;2023-10-31T07:14:00;8.70;;;2.33;;
50429;SDS011;36359;41.556;-8.418;2023-10-31T07:16:27;12.32;;;2.50;;
50429;SDS011;36359;41.556;-8.418;2023-10-31T07:18:53;8.32;;;2.22;;
50429;SDS011;36359;41.556;-8.418;2023-10-31T07:21:19;10.30;;;2.30;;
50429;SDS011;36359;41.556;-8.418;2023-10-31T07:23:45;10.43;;;2.33;;
50429;SDS011;36359;41.556;-8.418;2023-10-31T07:26:11;9.32;;;2.67;;
50429;SDS011;36359;41.556;-8.418;2023-10-31T07:28:37;8.88;;;2.45;;
50429;SDS011;36359;41.556;-8.418;2023-10-31T07:31:02;9.63;;;2.88;;
50429;SDS011;36359;41.556;-8.418;2023-10-31T07:33:30;9.93;;;2.47;;
50429;SDS011;36359;41.556;-8.418;2023-10-31T07:35:55;11.23;;;2.78;;
50429;SDS011;36359;41.556;-8.418;2023-10-31T07:38:21;10.25;;;2.20;;
50429;SDS011;36359;41.556;-8.418;2023-10-31T07:40:47;8.82;;;2.22;;
50429;SDS011;36359;41.556;-8.418;2023-10-31T07:43:14;11.90;;;3.55;;
50429;SDS011;36359;41.556;-8.418;2023-10-31T07:45:40;7.70;;;2.35;;
50429;SDS011;36359;41.556;-8.418;2023-10-31T07:48:07;6.85;;;2.08;;
50429;SDS011;36359;41.556;-8.418;2023-10-31T07:50:33;6.88;;;2.33;;
50429;SDS011;36359;41.556;-8.418;2023-10-31T07:52:59;8.90;;;2.75;;
50429;SDS011;36359;41.556;-8.418;2023-10-31T07:55:25;10.30;;;2.72;;
50429;SDS011;36359;41.556;-8.418;2023-10-31T07:57:51;12.02;;;2.58;;
50429;SDS011;36359;41.556;-8.418;2023-10-31T08:00:20;9.85;;;2.55;;
50429;SDS011;36359;41.556;-8.418;2023-10-31T08:02:47;7.97;;;2.80;;
50429;SDS011;36359;41.556;-8.418;2023-10-31T08:05:13;8.43;;;2.20;;
50429;SDS011;36359;41.556;-8.418;2023-10-31T08:07:39;7.72;;;1.98;;
50429;SDS011;36359;41.556;-8.418;2023-10-31T08:10:05;7.82;;;1.65;;
50429;SDS011;36359;41.556;-8.418;2023-10-31T08:12:32;7.82;;;1.50;;
50429;SDS011;36359;41.556;-8.418;2023-10-31T08:14:58;7.38;;;1.98;;
50429;SDS011;36359;41.556;-8.418;2023-10-31T08:17:25;8.35;;;1.80;;
50429;SDS011;36359;41.556;-8.418;2023-10-31T08:19:51;6.13;;;2.10;;
50429;SDS011;36359;41.556;-8.418;2023-10-31T08:22:18;7.75;;;1.65;;
50429;SDS011;36359;41.556;-8.418;2023-10-31T08:24:44;9.00;;;2.00;;
50429;SDS011;36359;41.556;-8.418;2023-10-31T08:27:10;6.05;;;1.70;;
50429;SDS011;36359;41.556;-8.418;2023-10-31T08:29:38;7.25;;;1.40;;
50429;SDS011;36359;41.556;-8.418;2023-10-31T08:32:04;6.35;;;1.92;;
50429;SDS011;36359;41.556;-8.418;2023-10-31T08:34:33;115.93;;;74.97;;
50429;SDS011;36359;41.556;-8.418;2023-10-31T08:36:59;87.20;;;54.83;;
50429;SDS011;36359;41.556;-8.418;2023-10-31T08:39:26;62.85;;;35.05;;
50429;SDS011;36359;41.556;-8.418;2023-10-31T08:41:52;47.08;;;25.35;;
50429;SDS011;36359;41.556;-8.418;2023-10-31T08:44:21;18.33;;;8.90;;
50429;SDS011;36359;41.556;-8.418;2023-10-31T08:46:47;16.17;;;7.13;;
50429;SDS011;36359;41.556;-8.418;2023-10-31T08:49:16;16.85;;;8.48;;
50429;SDS011;36359;41.556;-8.418;2023-10-31T08:51:42;15.52;;;6.60;;
50429;SDS011;36359;41.556;-8.418;2023-10-31T08:54:09;13.52;;;4.68;;
50429;SDS011;36359;41.556;-8.418;2023-10-31T08:56:35;14.93;;;5.95;;
50429;SDS011;36359;41.556;-8.418;2023-10-31T08:59:01;17.08;;;5.90;;
50429;SDS011;36359;41.556;-8.418;2023-10-31T09:01:27;17.95;;;6.38;;
50429;SDS011;36359;41.556;-8.418;2023-10-31T09:03:54;17.63;;;5.95;;
50429;SDS011;36359;41.556;-8.418;2023-10-31T09:06:20;14.32;;;5.25;;
50429;SDS011;36359;41.556;-8.418;2023-10-31T09:08:46;11.35;;;4.13;;
50429;SDS011;36359;41.556;-8.418;2023-10-31T09:11:12;17.58;;;6.53;;
50429;SDS011;36359;41.556;-8.418;2023-10-31T09:13:37;30.30;;;9.50;;
50429;SDS011;36359;41.556;-8.418;2023-10-31T09:16:03;19.73;;;7.25;;
50429;SDS011;36359;41.556;-8.418;2023-10-31T09:18:29;14.75;;;5.25;;
50429;SDS011;36359;41.556;-8.418;2023-10-31T09:20:55;13.73;;;5.70;;
50429;SDS011;36359;41.556;-8.418;2023-10-31T09:23:21;11.00;;;4.22;;
50429;SDS011;36359;41.556;-8.418;2023-10-31T09:25:47;22.33;;;8.50;;
50429;SDS011;36359;41.556;-8.418;2023-10-31T09:28:13;24.73;;;9.20;;
50429;SDS011;36359;41.556;-8.418;2023-10-31T09:30:39;21.80;;;7.80;;
50429;SDS011;36359;41.556;-8.418;2023-10-31T09:33:05;15.02;;;6.90;;
50429;SDS011;36359;41.556;-8.418;2023-10-31T09:35:30;12.90;;;5.13;;
50429;SDS011;36359;41.556;-8.418;2023-10-31T09:37:56;9.52;;;2.85;;
50429;SDS011;36359;41.556;-8.418;2023-10-31T09:40:22;10.20;;;4.20;;
50429;SDS011;36359;41.556;-8.418;2023-10-31T09:42:48;7.90;;;3.00;;
50429;SDS011;36359;41.556;-8.418;2023-10-31T09:45:14;12.15;;;4.53;;
50429;SDS011;36359;41.556;-8.418;2023-10-31T09:47:41;8.25;;;2.30;;
50429;SDS011;36359;41.556;-8.418;2023-10-31T09:50:09;9.15;;;3.42;;
50429;SDS011;36359;41.556;-8.418;2023-10-31T09:52:36;9.18;;;3.30;;
50429;SDS011;36359;41.556;-8.418;2023-10-31T09:55:02;9.57;;;2.50;;
50429;SDS011;36359;41.556;-8.418;2023-10-31T09:57:28;10.43;;;3.22;;
50429;SDS011;36359;41.556;-8.418;2023-10-31T09:59:54;6.90;;;2.58;;
50429;SDS011;36359;41.556;-8.418;2023-10-31T10:02:20;9.57;;;3.00;;
50429;SDS011;36359;41.556;-8.418;2023-10-31T10:04:47;7.43;;;2.92;;
50429;SDS011;36359;41.556;-8.418;2023-10-31T10:07:15;11.95;;;2.47;;
50429;SDS011;36359;41.556;-8.418;2023-10-31T10:09:45;9.07;;;2.50;;
50429;SDS011;36359;41.556;-8.418;2023-10-31T10:12:20;10.52;;;3.67;;
50429;SDS011;36359;41.556;-8.418;2023-10-31T10:14:46;8.15;;;3.72;;
50429;SDS011;36359;41.556;-8.418;2023-10-31T10:19:52;8.30;;;2.97;;
50429;SDS011;36359;41.556;-8.418;2023-10-31T10:22:32;8.90;;;3.95;;
50429;SDS011;36359;41.556;-8.418;2023-10-31T10:25:04;7.05;;;3.03;;
50429;SDS011;36359;41.556;-8.418;2023-10-31T10:27:34;8.57;;;3.10;;
50429;SDS011;36359;41.556;-8.418;2023-10-31T10:30:02;8.40;;;3.33;;
50429;SDS011;36359;41.556;-8.418;2023-10-31T10:32:34;8.63;;;3.60;;
50429;SDS011;36359;41.556;-8.418;2023-10-31T10:35:00;12.48;;;2.42;;
50429;SDS011;36359;41.556;-8.418;2023-10-31T10:37:27;9.18;;;3.10;;
50429;SDS011;36359;41.556;-8.418;2023-10-31T10:39:53;8.00;;;2.28;;
50429;SDS011;36359;41.556;-8.418;2023-10-31T10:42:26;10.57;;;2.55;;
50429;SDS011;36359;41.556;-8.418;2023-10-31T10:44:54;9.20;;;1.70;;
50429;SDS011;36359;41.556;-8.418;2023-10-31T10:47:25;8.82;;;2.30;;
50429;SDS011;36359;41.556;-8.418;2023-10-31T10:49:51;7.18;;;2.80;;
50429;SDS011;36359;41.556;-8.418;2023-10-31T10:52:30;7.25;;;2.50;;
50429;SDS011;36359;41.556;-8.418;2023-10-31T10:55:30;8.70;;;3.30;;
50429;SDS011;36359;41.556;-8.418;2023-10-31T10:58:03;7.07;;;2.35;;
50429;SDS011;36359;41.556;-8.418;2023-10-31T11:00:33;5.30;;;2.50;;
50429;SDS011;36359;41.556;-8.418;2023-10-31T11:03:00;7.22;;;2.70;;
50429;SDS011;36359;41.556;-8.418;2023-10-31T11:05:27;10.63;;;2.90;;
50429;SDS011;36359;41.556;-8.418;2023-10-31T11:07:54;7.35;;;2.30;;
50429;SDS011;36359;41.556;-8.418;2023-10-31T11:10:23;8.82;;;2.33;;
50429;SDS011;36359;41.556;-8.418;2023-10-31T11:12:49;7.28;;;2.42;;
50429;SDS011;36359;41.556;-8.418;2023-10-31T11:15:16;7.57;;;2.85;;
50429;SDS011;36359;41.556;-8.418;2023-10-31T11:17:43;6.32;;;2.30;;
50429;SDS011;36359;41.556;-8.418;2023-10-31T11:20:11;10.48;;;2.13;;
50429;SDS011;36359;41.556;-8.418;2023-10-31T11:22:42;10.25;;;3.78;;
50429;SDS011;36359;41.556;-8.418;2023-10-31T11:25:19;9.00;;;2.83;;
50429;SDS011;36359;41.556;-8.418;2023-10-31T11:27:52;9.98;;;2.67;;
50429;SDS011;36359;41.556;-8.418;2023-10-31T11:30:20;10.40;;;3.45;;
50429;SDS011;36359;41.556;-8.418;2023-10-31T11:32:51;9.15;;;2.28;;
50429;SDS011;36359;41.556;-8.418;2023-10-31T11:35:17;10.05;;;2.95;;
50429;SDS011;36359;41.556;-8.418;2023-10-31T11:37:47;5.40;;;2.30;;
50429;SDS011;36359;41.556;-8.418;2023-10-31T11:40:15;8.48;;;1.75;;
50429;SDS011;36359;41.556;-8.418;2023-10-31T11:42:44;8.13;;;2.85;;
50429;SDS011;36359;41.556;-8.418;2023-10-31T11:45:26;7.45;;;2.85;;
50429;SDS011;36359;41.556;-8.418;2023-10-31T11:47:59;8.35;;;2.20;;
50429;SDS011;36359;41.556;-8.418;2023-10-31T11:50:24;7.15;;;1.83;;
50429;SDS011;36359;41.556;-8.418;2023-10-31T11:55:34;9.53;;;2.53;;
50429;SDS011;36359;41.556;-8.418;2023-10-31T12:00:39;6.32;;;2.40;;
50429;SDS011;36359;41.556;-8.418;2023-10-31T12:03:05;8.60;;;2.47;;
50429;SDS011;36359;41.556;-8.418;2023-10-31T12:05:31;7.95;;;3.05;;
50429;SDS011;36359;41.556;-8.418;2023-10-31T12:07:56;10.65;;;2.83;;
50429;SDS011;36359;41.556;-8.418;2023-10-31T12:10:23;7.40;;;2.40;;
50429;SDS011;36359;41.556;-8.418;2023-10-31T12:12:52;6.72;;;2.30;;
50429;SDS011;36359;41.556;-8.418;2023-10-31T12:15:18;7.85;;;2.22;;
50429;SDS011;36359;41.556;-8.418;2023-10-31T12:17:44;6.35;;;1.90;;
50429;SDS011;36359;41.556;-8.418;2023-10-31T12:20:10;8.02;;;2.60;;
50429;SDS011;36359;41.556;-8.418;2023-10-31T12:22:36;9.90;;;2.45;;
50429;SDS011;36359;41.556;-8.418;2023-10-31T12:25:03;9.40;;;2.22;;
50429;SDS011;36359;41.556;-8.418;2023-10-31T12:27:45;10.15;;;2.78;;
50429;SDS011;36359;41.556;-8.418;2023-10-31T12:30:12;10.70;;;2.00;;
50429;SDS011;36359;41.556;-8.418;2023-10-31T12:32:40;11.15;;;2.08;;
50429;SDS011;36359;41.556;-8.418;2023-10-31T12:35:11;14.48;;;2.10;;
50429;SDS011;36359;41.556;-8.418;2023-10-31T12:37:45;11.00;;;2.17;;
50429;SDS011;36359;41.556;-8.418;2023-10-31T12:40:13;10.98;;;1.90;;
50429;SDS011;36359;41.556;-8.418;2023-10-31T12:42:43;12.93;;;2.05;;
50429;SDS011;36359;41.556;-8.418;2023-10-31T12:45:10;7.03;;;1.80;;
50429;SDS011;36359;41.556;-8.418;2023-10-31T12:47:46;9.18;;;1.95;;
50429;SDS011;36359;41.556;-8.418;2023-10-31T12:50:34;8.93;;;2.17;;
50429;SDS011;36359;41.556;-8.418;2023-10-31T12:53:11;16.55;;;2.10;;
50429;SDS011;36359;41.556;-8.418;2023-10-31T12:55:55;11.35;;;1.90;;
50429;SDS011;36359;41.556;-8.418;2023-10-31T12:58:21;13.45;;;2.35;;
50429;SDS011;36359;41.556;-8.418;2023-10-31T13:00:55;10.35;;;1.92;;
50429;SDS011;36359;41.556;-8.418;2023-10-31T13:03:21;14.13;;;2.60;;
50429;SDS011;36359;41.556;-8.418;2023-10-31T13:06:13;7.95;;;2.10;;
50429;SDS011;36359;41.556;-8.418;2023-10-31T13:08:50;12.55;;;2.33;;
50429;SDS011;36359;41.556;-8.418;2023-10-31T13:11:29;9.60;;;2.17;;
50429;SDS011;36359;41.556;-8.418;2023-10-31T13:13:56;8.60;;;2.33;;
50429;SDS011;36359;41.556;-8.418;2023-10-31T13:16:31;8.45;;;1.83;;
50429;SDS011;36359;41.556;-8.418;2023-10-31T13:19:05;13.77;;;2.30;;
50429;SDS011;36359;41.556;-8.418;2023-10-31T13:21:37;11.52;;;2.00;;
50429;SDS011;36359;41.556;-8.418;2023-10-31T13:24:03;9.27;;;2.40;;
50429;SDS011;36359;41.556;-8.418;2023-10-31T13:26:36;14.15;;;2.83;;
50429;SDS011;36359;41.556;-8.418;2023-10-31T13:29:02;13.02;;;2.00;;
50429;SDS011;36359;41.556;-8.418;2023-10-31T13:31:34;7.05;;;1.83;;
50429;SDS011;36359;41.556;-8.418;2023-10-31T13:34:00;5.97;;;1.60;;
50429;SDS011;36359;41.556;-8.418;2023-10-31T13:36:32;6.10;;;1.40;;
50429;SDS011;36359;41.556;-8.418;2023-10-31T13:38:58;5.80;;;1.20;;
50429;SDS011;36359;41.556;-8.418;2023-10-31T13:41:30;9.65;;;2.10;;
50429;SDS011;36359;41.556;-8.418;2023-10-31T13:44:09;4.38;;;1.23;;
50429;SDS011;36359;41.556;-8.418;2023-10-31T13:46:35;8.68;;;1.70;;
50429;SDS011;36359;41.556;-8.418;2023-10-31T13:49:14;6.35;;;1.80;;
50429;SDS011;36359;41.556;-8.418;2023-10-31T13:51:46;7.32;;;2.05;;
50429;SDS011;36359;41.556;-8.418;2023-10-31T13:54:14;7.40;;;1.40;;
50429;SDS011;36359;41.556;-8.418;2023-10-31T13:56:47;8.82;;;2.35;;
50429;SDS011;36359;41.556;-8.418;2023-10-31T13:59:13;8.90;;;1.77;;
50429;SDS011;36359;41.556;-8.418;2023-10-31T14:01:47;7.65;;;1.70;;
50429;SDS011;36359;41.556;-8.418;2023-10-31T14:04:13;12.65;;;2.00;;
50429;SDS011;36359;41.556;-8.418;2023-10-31T14:06:47;8.50;;;1.70;;
50429;SDS011;36359;41.556;-8.418;2023-10-31T14:09:13;10.88;;;1.90;;
50429;SDS011;36359;41.556;-8.418;2023-10-31T14:11:49;8.57;;;2.25;;
50429;SDS011;36359;41.556;-8.418;2023-10-31T14:14:30;12.20;;;1.88;;
50429;SDS011;36359;41.556;-8.418;2023-10-31T14:16:56;7.03;;;1.40;;
50429;SDS011;36359;41.556;-8.418;2023-10-31T14:19:29;9.88;;;1.48;;
50429;SDS011;36359;41.556;-8.418;2023-10-31T14:21:55;12.00;;;1.95;;
50429;SDS011;36359;41.556;-8.418;2023-10-31T14:24:27;8.60;;;1.88;;
50429;SDS011;36359;41.556;-8.418;2023-10-31T14:26:53;9.98;;;2.08;;
50429;SDS011;36359;41.556;-8.418;2023-10-31T14:29:25;11.98;;;2.60;;
50429;SDS011;36359;41.556;-8.418;2023-10-31T14:31:52;7.55;;;1.48;;
50429;SDS011;36359;41.556;-8.418;2023-10-31T14:34:25;10.27;;;3.72;;
50429;SDS011;36359;41.556;-8.418;2023-10-31T14:36:51;10.70;;;5.40;;